Terminal Aerodrome Forecast
Issued by NWS Raleigh/Durham, NC

Home | Current Version | Previous Version | Text Only | Print | Product List | Glossary On
Versions: 1 2 3 4 5 6 7 8 9 10 11 12 13 14 15 16 17 18 19 20 21 22 23 24 25 26 27 28 29 30 31 32 33 34 35 36 37 38 39 40 41 42 43 44 45 46 47 48 49 50
000
FTUS42 KRAH 222132 AAA
TAFGSO
TAF AMD
KGSO 222132Z 2222/2318 24006KT P6SM -RA FEW015 SCT070 BKN130
     FM230600 22005KT P6SM -RA OVC012
      TEMPO 2309/2312 4SM -RA BR OVC006
     FM231500 23010G18KT P6SM VCSH OVC035
     FM231700 22012G20KT P6SM SCT040 BKN080=

USA.gov is the U.S. government's official web portal to all federal, state and local government web resources and services.